createdAt,value
2023-04-14T00:01:43.370Z,7.95
2023-04-14T00:04:15.102Z,7.88
2023-04-14T00:06:46.734Z,7.82
2023-04-14T00:09:18.542Z,7.80
2023-04-14T00:11:49.999Z,7.84
2023-04-14T00:14:21.828Z,7.86
2023-04-14T00:16:53.416Z,7.92
2023-04-14T00:19:25.257Z,7.99
2023-04-14T00:21:56.729Z,7.99
2023-04-14T00:24:28.531Z,8.03
2023-04-14T00:26:59.988Z,8.06
2023-04-14T00:29:31.481Z,8.09
2023-04-14T00:32:02.974Z,8.12
2023-04-14T00:34:34.486Z,8.13
2023-04-14T00:37:05.956Z,8.16
2023-04-14T00:39:37.800Z,8.20
2023-04-14T00:42:09.274Z,8.18
2023-04-14T00:44:41.155Z,8.15
2023-04-14T00:47:12.616Z,8.16
2023-04-14T00:49:44.529Z,8.14
2023-04-14T00:52:16.000Z,8.13
2023-04-14T00:54:47.494Z,8.13
2023-04-14T00:57:18.985Z,8.16
2023-04-14T00:59:50.772Z,8.17
2023-04-14T01:02:22.442Z,8.19
2023-04-14T01:04:54.975Z,8.18
2023-04-14T01:07:26.584Z,8.18
2023-04-14T01:09:58.423Z,8.18
2023-04-14T01:12:29.950Z,8.21
2023-04-14T01:15:01.660Z,8.21
2023-04-14T01:17:33.149Z,8.18
2023-04-14T01:20:05.167Z,8.15
2023-04-14T01:22:36.663Z,8.12
2023-04-14T01:25:08.178Z,8.13
2023-04-14T01:27:39.672Z,8.15
2023-04-14T01:30:11.460Z,8.18
2023-04-14T01:32:43.010Z,8.22
2023-04-14T01:35:14.915Z,8.24
2023-04-14T01:37:46.420Z,8.29
2023-04-14T01:40:18.235Z,8.33
2023-04-14T01:42:49.704Z,8.33
2023-04-14T01:45:21.420Z,8.36
2023-04-14T01:47:52.945Z,8.37
2023-04-14T01:50:24.920Z,8.39
2023-04-14T01:52:56.382Z,8.42
2023-04-14T01:55:28.174Z,8.44
2023-04-14T01:57:59.652Z,8.45
2023-04-14T02:00:31.172Z,8.46
2023-04-14T02:03:02.765Z,8.45
2023-04-14T02:05:34.319Z,8.46
2023-04-14T02:08:05.778Z,8.48
2023-04-14T02:10:37.809Z,8.49
2023-04-14T02:13:09.270Z,8.49
2023-04-14T02:15:40.991Z,8.48
2023-04-14T02:18:12.810Z,8.50
2023-04-14T02:20:44.282Z,8.55
2023-04-14T02:23:15.957Z,8.57
2023-04-14T02:25:47.419Z,8.59
2023-04-14T02:28:19.431Z,8.61
2023-04-14T02:30:50.902Z,8.62
2023-04-14T02:33:22.757Z,8.66
2023-04-14T02:35:54.210Z,8.66
2023-04-14T02:38:26.023Z,8.66
2023-04-14T02:40:57.495Z,8.71
2023-04-14T02:43:28.988Z,8.74
2023-04-14T02:46:00.501Z,8.77
2023-04-14T02:48:32.062Z,8.80
2023-04-14T02:51:03.535Z,8.81
2023-04-14T02:53:35.041Z,8.82
2023-04-14T02:56:06.513Z,8.83
2023-04-14T02:58:38.357Z,8.84
2023-04-14T03:01:09.914Z,8.83
2023-04-14T03:03:41.754Z,8.85
2023-04-14T03:06:13.220Z,8.85
2023-04-14T03:08:44.836Z,8.82
2023-04-14T03:11:16.302Z,8.81
2023-04-14T03:13:48.127Z,8.81
2023-04-14T03:16:19.655Z,8.81
2023-04-14T03:18:51.438Z,8.75
2023-04-14T03:21:22.888Z,8.77
2023-04-14T03:23:54.676Z,8.68
2023-04-14T03:26:26.115Z,8.65
2023-04-14T03:28:57.967Z,8.60
2023-04-14T03:31:29.506Z,8.58
2023-04-14T03:34:01.325Z,8.55
2023-04-14T03:36:32.797Z,8.50
2023-04-14T03:39:04.640Z,8.47
2023-04-14T03:41:36.142Z,8.43
2023-04-14T03:44:08.015Z,8.42
2023-04-14T03:46:39.520Z,8.40
2023-04-14T03:49:11.713Z,8.35
2023-04-14T03:51:43.202Z,8.25
2023-04-14T03:54:15.060Z,8.21
2023-04-14T03:56:46.514Z,8.28
2023-04-14T03:59:18.271Z,8.29
2023-04-14T04:01:49.806Z,8.28
2023-04-14T04:04:21.727Z,8.27
2023-04-14T04:06:53.277Z,8.32
2023-04-14T04:09:25.105Z,8.34
2023-04-14T04:11:56.565Z,8.38
2023-04-14T04:14:28.413Z,8.39
2023-04-14T04:16:59.959Z,8.40
2023-04-14T04:19:31.448Z,8.41
2023-04-14T04:22:02.920Z,8.37
2023-04-14T04:24:34.439Z,8.40
2023-04-14T04:27:09.868Z,8.40
2023-04-14T04:29:46.700Z,8.39
2023-04-14T04:32:18.220Z,8.40
2023-04-14T04:34:50.116Z,8.41
2023-04-14T04:37:21.582Z,8.42
2023-04-14T04:39:53.230Z,8.42
2023-04-14T04:42:24.711Z,8.45
2023-04-14T04:44:56.521Z,8.46
2023-04-14T04:47:28.133Z,8.49
2023-04-14T04:50:00.004Z,8.50
2023-04-14T04:52:31.473Z,8.55
2023-04-14T04:55:03.303Z,8.55
2023-04-14T04:57:34.769Z,8.59
2023-04-14T05:00:06.545Z,8.62
2023-04-14T05:02:38.057Z,8.65
2023-04-14T05:05:09.962Z,8.66
2023-04-14T05:07:41.447Z,8.69
2023-04-14T05:10:13.405Z,8.68
2023-04-14T05:12:44.899Z,8.71
2023-04-14T05:15:16.551Z,8.77
2023-04-14T05:17:48.028Z,8.82
2023-04-14T05:20:19.844Z,8.86
2023-04-14T05:22:51.317Z,8.87
2023-04-14T05:25:23.093Z,8.91
2023-04-14T05:27:54.962Z,8.93
2023-04-14T05:30:26.456Z,8.95
2023-04-14T05:32:58.381Z,8.97
2023-04-14T05:35:29.862Z,8.94
2023-04-14T05:38:01.691Z,8.46
2023-04-14T05:40:33.177Z,8.92
2023-04-14T05:43:04.666Z,8.91
2023-04-14T05:45:36.130Z,8.89
2023-04-14T05:48:08.060Z,8.88
2023-04-14T05:50:39.531Z,8.91
2023-04-14T05:53:11.339Z,8.93
2023-04-14T05:55:42.806Z,8.95
2023-04-14T05:58:14.576Z,9.02
2023-04-14T06:00:46.037Z,9.08
2023-04-14T06:03:17.985Z,9.18
2023-04-14T06:05:49.605Z,9.22
2023-04-14T06:08:21.450Z,9.29
2023-04-14T06:10:53.026Z,9.32
2023-04-14T06:13:24.713Z,9.34
2023-04-14T06:18:27.793Z,9.47
2023-04-14T06:20:59.267Z,8.55
2023-04-14T06:23:30.765Z,9.52
2023-04-14T06:26:02.266Z,9.60
2023-04-14T06:28:33.742Z,9.60
2023-04-14T06:31:05.230Z,9.46
2023-04-14T06:33:37.139Z,9.50
2023-04-14T06:36:08.620Z,9.53
2023-04-14T06:38:40.120Z,9.45
2023-04-14T06:41:11.588Z,9.52
2023-04-14T06:43:43.406Z,9.68
2023-04-14T06:46:14.906Z,9.74
2023-04-14T06:48:46.785Z,9.82
2023-04-14T06:51:18.257Z,9.91
2023-04-14T06:53:50.142Z,9.86
2023-04-14T06:56:21.616Z,10.09
2023-04-14T06:58:53.552Z,10.09
2023-04-14T07:01:25.120Z,10.14
2023-04-14T07:03:56.686Z,10.03
2023-04-14T07:06:28.189Z,10.19
2023-04-14T07:08:59.815Z,10.39
2023-04-14T07:11:31.274Z,10.46
2023-04-14T07:14:03.077Z,10.46
2023-04-14T07:16:34.875Z,10.48
2023-04-14T07:19:06.652Z,10.57
2023-04-14T07:21:38.133Z,10.49
2023-04-14T07:24:09.945Z,10.62
2023-04-14T07:26:41.399Z,10.63
2023-04-14T07:29:13.012Z,10.59
2023-04-14T07:31:44.556Z,10.66
2023-04-14T07:34:16.208Z,10.53
2023-04-14T07:36:47.683Z,10.70
2023-04-14T07:39:23.721Z,10.61
2023-04-14T07:41:55.383Z,10.53
2023-04-14T07:44:26.957Z,10.58
2023-04-14T07:46:58.424Z,10.55
2023-04-14T07:49:29.917Z,10.56
2023-04-14T07:52:01.441Z,10.70
2023-04-14T07:57:14.330Z,10.43
2023-04-14T07:59:45.806Z,10.39
2023-04-14T08:02:17.398Z,10.30
2023-04-14T08:04:49.245Z,10.11
2023-04-14T08:07:20.729Z,9.90
2023-04-14T08:09:52.455Z,9.90
2023-04-14T08:12:23.944Z,9.93
2023-04-14T08:14:55.754Z,10.04
2023-04-14T08:17:27.242Z,9.96
2023-04-14T08:19:59.079Z,9.95
2023-04-14T08:22:30.549Z,9.90
2023-04-14T08:25:02.263Z,10.02
2023-04-14T08:27:33.731Z,9.92
2023-04-14T08:30:05.435Z,9.70
2023-04-14T08:32:36.948Z,9.38
2023-04-14T08:35:37.436Z,9.40
2023-04-14T08:38:00.700Z,9.17
2023-04-14T08:40:32.180Z,9.32
2023-04-14T08:43:03.847Z,9.54
2023-04-14T08:45:35.336Z,9.50
2023-04-14T08:48:07.374Z,9.79
2023-04-14T08:50:38.854Z,9.89
2023-04-14T08:53:10.718Z,10.28
2023-04-14T08:55:42.240Z,10.22
2023-04-14T08:58:14.128Z,10.30
2023-04-14T09:00:45.623Z,10.34
2023-04-14T09:03:17.684Z,10.10
2023-04-14T09:05:49.282Z,9.88
2023-04-14T09:08:21.061Z,9.94
2023-04-14T09:10:52.557Z,9.97
2023-04-14T09:13:24.258Z,9.90
2023-04-14T09:15:55.724Z,9.62
2023-04-14T09:18:28.157Z,9.68
2023-04-14T09:21:50.896Z,9.50
2023-04-14T09:23:51.690Z,9.63
2023-04-14T09:26:23.154Z,9.68
2023-04-14T09:28:55.041Z,9.45
2023-04-14T09:31:26.518Z,9.24
2023-04-14T09:33:58.450Z,9.21
2023-04-14T09:36:29.967Z,9.04
2023-04-14T09:39:01.697Z,9.00
2023-04-14T09:41:33.167Z,9.11
2023-04-14T09:44:04.782Z,9.37
2023-04-14T09:46:36.268Z,9.26
2023-04-14T09:49:08.019Z,9.10
2023-04-14T09:51:39.520Z,9.33
2023-04-14T09:54:11.253Z,9.43
2023-04-14T09:56:42.714Z,9.35
2023-04-14T09:59:14.351Z,9.09
2023-04-14T10:01:45.895Z,9.34
2023-04-14T10:04:17.470Z,9.28
2023-04-14T10:06:48.952Z,9.11
2023-04-14T10:09:20.582Z,9.27
2023-04-14T10:11:52.039Z,9.43
2023-04-14T10:14:23.642Z,9.24
2023-04-14T10:16:55.090Z,9.15
2023-04-14T10:19:26.707Z,9.32
2023-04-14T10:21:58.197Z,9.46
2023-04-14T10:24:29.717Z,9.31
2023-04-14T10:27:01.166Z,9.32
2023-04-14T10:29:32.652Z,9.22
2023-04-14T10:32:04.188Z,8.87
2023-04-14T10:34:35.674Z,8.85
2023-04-14T10:37:07.130Z,8.95
2023-04-14T10:39:38.608Z,9.06
2023-04-14T10:42:10.071Z,9.13
2023-04-14T10:44:41.708Z,9.23
2023-04-14T10:47:13.254Z,8.98
2023-04-14T10:49:44.904Z,8.99
2023-04-14T10:52:16.350Z,9.11
2023-04-14T10:54:48.349Z,9.03
2023-04-14T10:57:19.840Z,9.41
2023-04-14T10:59:51.696Z,9.36
2023-04-14T11:02:23.346Z,9.32
2023-04-14T11:04:55.313Z,6.63
2023-04-14T11:07:26.813Z,9.13
2023-04-14T11:09:58.640Z,8.79
2023-04-14T11:12:30.090Z,8.93
2023-04-14T11:15:01.923Z,8.70
2023-04-14T11:17:33.477Z,8.62
2023-04-14T11:20:05.281Z,8.64
2023-04-14T11:22:36.733Z,8.64
2023-04-14T11:25:08.562Z,8.50
2023-04-14T11:27:40.049Z,8.45
2023-04-14T11:30:11.492Z,8.40
2023-04-14T11:32:43.325Z,8.43
2023-04-14T11:35:14.802Z,8.56
2023-04-14T11:37:46.661Z,8.50
2023-04-14T11:40:18.120Z,8.43
2023-04-14T11:42:49.737Z,8.58
2023-04-14T11:45:21.204Z,8.48
2023-04-14T11:47:53.053Z,8.33
2023-04-14T11:50:24.525Z,8.43
2023-04-14T11:52:55.989Z,8.27
2023-04-14T11:55:27.536Z,8.36
2023-04-14T11:57:59.383Z,8.42
2023-04-14T12:00:31.850Z,8.53
2023-04-14T12:03:03.887Z,8.66
2023-04-14T12:05:35.699Z,8.64
2023-04-14T12:08:07.713Z,8.61
2023-04-14T12:10:39.228Z,8.75
2023-04-14T12:13:10.952Z,8.68
2023-04-14T12:15:42.577Z,8.57
2023-04-14T12:18:14.721Z,8.50
2023-04-14T12:20:46.214Z,8.44
2023-04-14T12:23:18.041Z,8.35
2023-04-14T12:25:49.525Z,8.29
2023-04-14T12:28:21.376Z,8.46
2023-04-14T12:30:52.824Z,8.67
2023-04-14T12:33:24.493Z,8.20
2023-04-14T12:35:55.981Z,8.51
2023-04-14T12:38:27.740Z,8.43
2023-04-14T12:40:59.291Z,8.58
2023-04-14T12:43:31.056Z,8.34
2023-04-14T12:46:02.492Z,8.37
2023-04-14T12:48:34.270Z,8.40
2023-04-14T12:51:05.726Z,8.34
2023-04-14T12:53:37.523Z,8.41
2023-04-14T12:56:08.964Z,8.26
2023-04-14T12:58:40.790Z,8.39
2023-04-14T13:12:22.124Z,9.12
2023-04-14T13:15:04.050Z,9.14
2023-04-14T13:17:35.708Z,9.21
2023-04-14T13:20:07.811Z,8.86
2023-04-14T13:22:39.305Z,8.92
2023-04-14T13:25:11.140Z,9.26
2023-04-14T13:27:42.918Z,9.04
2023-04-14T13:30:14.363Z,9.04
2023-04-14T13:32:46.239Z,8.90
2023-04-14T13:35:17.767Z,9.01
2023-04-14T13:37:51.455Z,9.14
2023-04-14T13:40:22.943Z,9.01
2023-04-14T13:42:54.403Z,9.03
2023-04-14T13:45:25.876Z,8.88
2023-04-14T13:47:57.781Z,8.72
2023-04-14T13:50:29.271Z,8.84
2023-04-14T13:53:01.049Z,8.74
2023-04-14T13:55:32.552Z,8.70
2023-04-14T13:58:04.327Z,8.72
2023-04-14T14:00:35.810Z,8.67
2023-04-14T14:03:07.696Z,8.55
2023-04-14T14:05:39.311Z,8.42
2023-04-14T14:08:11.102Z,8.34
2023-04-14T14:13:18.563Z,8.51
2023-04-14T14:15:50.242Z,8.50
2023-04-14T14:18:22.037Z,8.54
2023-04-14T14:20:53.603Z,8.72
2023-04-14T14:23:25.473Z,8.70
2023-04-14T14:25:56.919Z,8.72
2023-04-14T14:28:28.720Z,8.76
2023-04-14T14:31:00.228Z,8.87
2023-04-14T14:33:32.007Z,8.92
2023-04-14T14:36:03.455Z,8.89
2023-04-14T14:38:35.231Z,8.85
2023-04-14T14:41:06.734Z,8.86
2023-04-14T14:43:38.203Z,8.58
2023-04-14T14:46:09.704Z,8.52
2023-04-14T14:48:41.506Z,8.39
2023-04-14T14:51:12.960Z,8.41
2023-04-14T14:53:44.730Z,8.40
2023-04-14T14:56:16.203Z,8.35
2023-04-14T14:58:48.052Z,8.37
2023-04-14T15:01:19.543Z,8.12
2023-04-14T15:03:51.108Z,8.07
2023-04-14T15:06:22.609Z,8.24
2023-04-14T15:08:54.091Z,8.13
2023-04-14T15:11:25.566Z,8.14
2023-04-14T15:13:57.051Z,8.09
2023-04-14T15:16:28.544Z,8.15
2023-04-14T15:19:00.259Z,8.16
2023-04-14T15:21:31.719Z,8.03
2023-04-14T15:24:03.776Z,8.01
2023-04-14T15:26:35.508Z,8.06
2023-04-14T15:29:07.550Z,8.08
2023-04-14T15:31:39.073Z,8.12
2023-04-14T15:34:10.884Z,8.00
2023-04-14T15:36:42.344Z,8.02
2023-04-14T15:39:14.454Z,8.09
2023-04-14T15:41:47.977Z,8.01
2023-04-14T15:44:19.464Z,8.12
2023-04-14T15:46:50.976Z,8.21
2023-04-14T15:49:22.722Z,8.07
2023-04-14T15:51:54.460Z,7.99
2023-04-14T15:54:27.466Z,7.93
2023-04-14T15:56:58.937Z,7.94
2023-04-14T15:59:30.708Z,7.94
2023-04-14T16:02:02.171Z,7.89
2023-04-14T16:04:34.084Z,7.96
2023-04-14T16:07:05.655Z,7.97
2023-04-14T16:09:37.499Z,8.00
2023-04-14T16:12:08.970Z,8.04
2023-04-14T16:14:40.808Z,7.97
2023-04-14T16:17:12.277Z,7.92
2023-04-14T16:19:44.065Z,7.98
2023-04-14T16:22:15.521Z,7.90
2023-04-14T16:24:46.994Z,7.90
2023-04-14T16:27:18.508Z,7.96
2023-04-14T16:29:49.985Z,7.87
2023-04-14T16:32:21.737Z,7.87
2023-04-14T16:34:53.275Z,7.81
2023-04-14T16:37:25.097Z,7.87
2023-04-14T16:39:56.570Z,7.89
2023-04-14T16:42:28.399Z,7.83
2023-04-14T16:44:59.858Z,7.89
2023-04-14T16:47:31.607Z,7.85
2023-04-14T16:50:03.143Z,7.87
2023-04-14T16:52:34.633Z,7.83
2023-04-14T16:55:06.097Z,7.93
2023-04-14T16:57:37.569Z,7.91
2023-04-14T17:00:09.033Z,7.97
2023-04-14T17:02:40.775Z,7.94
2023-04-14T17:05:12.502Z,8.00
2023-04-14T17:07:44.139Z,6.88
2023-04-14T17:10:15.583Z,7.91
2023-04-14T17:12:47.112Z,7.90
2023-04-14T17:15:18.600Z,7.81
2023-04-14T17:17:50.162Z,7.79
2023-04-14T17:20:21.694Z,7.76
2023-04-14T17:22:53.437Z,7.77
2023-04-14T17:25:24.933Z,7.86
2023-04-14T17:27:56.429Z,7.86
2023-04-14T17:30:27.901Z,7.84
2023-04-14T17:32:59.704Z,7.85
2023-04-14T17:35:31.187Z,7.80
2023-04-14T17:38:02.668Z,7.78
2023-04-14T17:40:34.148Z,7.82
2023-04-14T17:43:05.878Z,7.78
2023-04-14T17:45:37.492Z,7.77
2023-04-14T17:48:09.217Z,7.76
2023-04-14T17:50:40.742Z,7.75
2023-04-14T17:53:12.242Z,7.72
2023-04-14T17:55:43.802Z,7.77
2023-04-14T17:58:15.601Z,7.82
2023-04-14T18:00:47.054Z,7.80
2023-04-14T18:03:18.662Z,7.71
2023-04-14T18:05:50.180Z,7.79
2023-04-14T18:08:22.021Z,7.75
2023-04-14T18:10:53.490Z,7.78
2023-04-14T18:13:25.034Z,7.77
2023-04-14T18:15:56.494Z,7.69
2023-04-14T18:18:28.416Z,7.72
2023-04-14T18:20:59.881Z,7.78
2023-04-14T18:23:31.682Z,7.76
2023-04-14T18:28:38.102Z,7.74
2023-04-14T18:31:10.700Z,7.68
2023-04-14T18:33:43.329Z,7.66
2023-04-14T18:36:14.830Z,7.62
2023-04-14T18:38:46.619Z,7.62
2023-04-14T18:41:18.075Z,7.61
2023-04-14T18:43:49.634Z,7.63
2023-04-14T18:46:21.165Z,7.66
2023-04-14T18:48:52.682Z,7.63
2023-04-14T18:51:24.154Z,7.59
2023-04-14T18:53:55.656Z,7.56
2023-04-14T18:56:27.131Z,7.61
2023-04-14T18:58:58.744Z,7.64
2023-04-14T19:01:30.398Z,7.59
2023-04-14T19:04:02.073Z,7.58
2023-04-14T19:06:33.680Z,7.58
2023-04-14T19:09:05.603Z,7.60
2023-04-14T19:11:37.095Z,7.63
2023-04-14T19:14:08.936Z,7.64
2023-04-14T19:16:40.407Z,7.64
2023-04-14T19:19:12.184Z,7.69
2023-04-14T19:21:43.626Z,7.67
2023-04-14T19:24:15.420Z,7.67
2023-04-14T19:26:46.915Z,7.70
2023-04-14T19:29:18.743Z,7.74
2023-04-14T19:31:50.205Z,7.76
2023-04-14T19:34:21.706Z,7.72
2023-04-14T19:36:53.151Z,7.76
2023-04-14T19:39:24.873Z,7.78
2023-04-14T19:41:56.376Z,7.82
2023-04-14T19:44:28.198Z,7.83
2023-04-14T19:46:59.700Z,7.93
2023-04-14T19:49:31.585Z,7.98
2023-04-14T19:52:03.572Z,8.02
2023-04-14T19:54:35.020Z,7.98
2023-04-14T19:57:06.514Z,7.96
2023-04-14T19:59:38.024Z,7.86
2023-04-14T20:02:09.880Z,7.77
2023-04-14T20:04:41.478Z,7.77
2023-04-14T20:07:13.178Z,7.76
2023-04-14T20:09:44.676Z,7.78
2023-04-14T20:12:16.543Z,7.73
2023-04-14T20:14:47.995Z,7.70
2023-04-14T20:17:19.870Z,7.82
2023-04-14T20:19:51.366Z,7.90
2023-04-14T20:22:23.165Z,7.97
2023-04-14T20:24:54.629Z,7.88
2023-04-14T20:27:26.267Z,7.94
2023-04-14T20:29:57.769Z,7.86
2023-04-14T20:32:29.586Z,7.90
2023-04-14T20:35:01.027Z,7.84
2023-04-14T20:37:32.908Z,7.81
2023-04-14T20:40:04.346Z,7.84
2023-04-14T20:42:36.049Z,7.86
2023-04-14T20:45:07.507Z,7.86
2023-04-14T20:47:39.325Z,7.89
2023-04-14T20:50:10.816Z,7.84
2023-04-14T20:52:42.720Z,7.81
2023-04-14T20:55:14.202Z,7.81
2023-04-14T20:57:45.688Z,7.77
2023-04-14T21:00:17.167Z,7.79
2023-04-14T21:02:49.107Z,7.81
2023-04-14T21:05:20.663Z,7.84
2023-04-14T21:07:52.123Z,7.90
2023-04-14T21:10:23.938Z,7.91
2023-04-14T21:15:24.700Z,7.93
2023-04-14T21:15:54.296Z,7.87
2023-04-14T21:18:28.244Z,7.88
2023-04-14T21:20:59.762Z,7.92
2023-04-14T21:23:31.230Z,7.93
2023-04-14T21:26:03.106Z,7.93
2023-04-14T21:28:34.572Z,7.87
2023-04-14T21:31:06.092Z,7.84
2023-04-14T21:33:37.639Z,7.86
2023-04-14T21:36:09.433Z,7.89
2023-04-14T21:38:40.928Z,7.90
2023-04-14T21:41:12.741Z,7.89
2023-04-14T21:43:44.192Z,7.85
2023-04-14T21:46:16.095Z,7.92
2023-04-14T21:48:47.619Z,7.92
2023-04-14T21:51:19.107Z,7.88
2023-04-14T21:53:50.569Z,7.87
2023-04-14T21:56:22.047Z,7.95
2023-04-14T21:58:53.513Z,7.94
2023-04-14T22:01:25.253Z,8.00
2023-04-14T22:03:56.832Z,8.02
2023-04-14T22:06:28.798Z,8.03
2023-04-14T22:09:00.539Z,8.00
2023-04-14T22:11:32.566Z,8.02
2023-04-14T22:14:04.133Z,8.03
2023-04-14T22:16:35.720Z,7.94
2023-04-14T22:19:07.246Z,8.00
2023-04-14T22:21:39.101Z,7.95
2023-04-14T22:24:10.553Z,7.89
2023-04-14T22:26:42.038Z,7.89
2023-04-14T22:29:13.467Z,7.91
2023-04-14T22:31:47.982Z,7.93
2023-04-14T22:34:19.438Z,8.00
2023-04-14T22:36:50.980Z,7.98
2023-04-14T22:39:22.546Z,7.93
2023-04-14T22:41:54.033Z,7.95
2023-04-14T22:44:25.986Z,7.94
2023-04-14T22:46:57.450Z,7.95
2023-04-14T22:49:29.235Z,7.96
2023-04-14T22:52:00.711Z,7.92
2023-04-14T22:54:32.644Z,7.93
2023-04-14T22:57:04.105Z,7.86
2023-04-14T22:59:35.853Z,7.92
2023-04-14T23:02:07.530Z,7.92
2023-04-14T23:04:39.437Z,7.93
2023-04-14T23:07:10.922Z,7.95
2023-04-14T23:09:42.731Z,7.93
2023-04-14T23:12:14.206Z,7.93
2023-04-14T23:14:45.882Z,7.97
2023-04-14T23:17:17.360Z,8.00
2023-04-14T23:19:49.144Z,7.97
2023-04-14T23:22:20.613Z,7.97
2023-04-14T23:24:52.083Z,7.94
2023-04-14T23:27:23.545Z,7.97
2023-04-14T23:29:55.006Z,7.95
2023-04-14T23:32:26.531Z,7.99
2023-04-14T23:34:58.388Z,7.96
2023-04-14T23:37:29.864Z,8.00
2023-04-14T23:40:01.657Z,8.05
2023-04-14T23:42:33.117Z,7.98
2023-04-14T23:45:04.746Z,7.98
2023-04-14T23:47:36.242Z,8.00
2023-04-14T23:50:08.044Z,8.03
2023-04-14T23:52:39.515Z,8.09
2023-04-14T23:55:11.067Z,8.02
2023-04-14T23:57:42.522Z,8.02
